Time;durP1;ratioP1;P1;durP2;ratioP2;P2;SDS_P1;SDS_P2;PMS_P1;PMS_P2;Temp;Humidity;BMP_temperature;BMP_pressure;BME280_temperature;BME280_humidity;BME280_pressure;Samples;Min_cycle;Max_cycle;Signal;HPM_P1;HPM_P2
2023/02/22 00:01:34;;;;;;;1.83;1.73;;;8.10;97.30;;;;;;5106493;28;20809;-83
2023/02/22 00:04:04;;;;;;;3.90;2.47;;;8.10;97.30;;;;;;5099410;28;20424;-85
2023/02/22 00:06:30;;;;;;;3.33;1.90;;;8.00;97.30;;;;;;5107531;28;20502;-84
2023/02/22 00:08:56;;;;;;;1.50;1.40;;;7.90;97.30;;;;;;5111541;28;20451;-83
2023/02/22 00:11:22;;;;;;;1.53;1.47;;;7.90;97.30;;;;;;5093036;28;20254;-82
2023/02/22 00:13:49;;;;;;;1.43;1.30;;;7.70;97.30;;;;;;5110725;28;20976;-84
2023/02/22 00:16:17;;;;;;;3.53;1.63;;;7.60;97.30;;;;;;5109518;27;20462;-84
2023/02/22 00:18:43;;;;;;;3.30;3.07;;;7.50;97.30;;;;;;5124964;27;20490;-83
2023/02/22 00:21:11;;;;;;;1.60;1.50;;;7.40;97.30;;;;;;5120856;27;20603;-84
2023/02/22 00:23:42;;;;;;;4.80;2.47;;;7.40;97.30;;;;;;5128277;27;20183;-84
2023/02/22 00:26:08;;;;;;;1.30;1.20;;;7.30;97.30;;;;;;5120838;27;20446;-80
2023/02/22 00:28:37;;;;;;;3.90;2.03;;;7.40;97.30;;;;;;5123327;27;20492;-80
2023/02/22 00:31:06;;;;;;;2.10;1.63;;;7.40;97.30;;;;;;5137008;27;20396;-83
2023/02/22 00:33:32;;;;;;;1.87;1.77;;;7.50;97.30;;;;;;5119976;27;20414;-83
2023/02/22 00:35:58;;;;;;;2.13;1.97;;;7.50;97.30;;;;;;5119753;27;20457;-85
2023/02/22 00:38:24;;;;;;;3.23;2.30;;;7.50;97.30;;;;;;5118266;27;20478;-80
2023/02/22 00:40:50;;;;;;;2.93;2.50;;;7.50;97.30;;;;;;5119276;27;20941;-83
2023/02/22 00:43:15;;;;;;;1.90;1.80;;;7.50;97.30;;;;;;5125352;27;20180;-86
2023/02/22 00:45:41;;;;;;;1.70;1.27;;;7.50;97.30;;;;;;5122386;27;20450;-85
2023/02/22 00:48:08;;;;;;;2.13;1.20;;;7.50;97.30;;;;;;5116949;27;20181;-85
2023/02/22 00:50:34;;;;;;;2.53;2.23;;;7.50;97.30;;;;;;5140969;27;20438;-80
2023/02/22 00:53:02;;;;;;;2.13;1.97;;;7.50;97.30;;;;;;5118543;27;20427;-83
2023/02/22 00:55:30;;;;;;;1.70;1.60;;;7.50;97.30;;;;;;5119999;27;20426;-83
2023/02/22 00:57:57;;;;;;;1.93;1.83;;;7.50;97.30;;;;;;5117929;27;21254;-85
2023/02/22 01:00:24;;;;;;;1.87;1.77;;;7.50;97.30;;;;;;5137256;27;20458;-83
2023/02/22 01:02:50;;;;;;;1.60;1.50;;;7.50;97.30;;;;;;5117039;27;20418;-83
2023/02/22 01:05:22;;;;;;;2.83;2.63;;;7.50;97.30;;;;;;5130626;27;20422;-83
2023/02/22 01:07:49;;;;;;;5.40;2.13;;;7.50;97.30;;;;;;5123932;27;20197;-80
2023/02/22 01:10:16;;;;;;;2.93;2.07;;;7.50;97.30;;;;;;5139246;27;20828;-84
2023/02/22 01:12:42;;;;;;;6.33;3.00;;;7.50;97.30;;;;;;5122607;27;20426;-84
2023/02/22 01:15:10;;;;;;;4.03;2.93;;;7.50;97.30;;;;;;5117566;27;20902;-84
2023/02/22 01:17:37;;;;;;;2.40;1.73;;;7.50;97.30;;;;;;5101469;28;20234;-83
2023/02/22 01:20:09;;;;;;;1.50;1.40;;;7.40;97.30;;;;;;5094678;28;20463;-85
2023/02/22 01:22:36;;;;;;;9.50;4.40;;;7.40;97.30;;;;;;5101694;28;20415;-84
2023/02/22 01:25:02;;;;;;;4.30;3.30;;;7.40;97.30;;;;;;5094640;28;20902;-84
2023/02/22 01:27:27;;;;;;;3.07;2.03;;;7.40;97.30;;;;;;5093669;28;20457;-84
2023/02/22 01:29:53;;;;;;;5.57;2.97;;;7.40;97.30;;;;;;5093815;28;20417;-84
2023/02/22 01:32:18;;;;;;;2.03;1.70;;;7.40;97.30;;;;;;5094381;28;20220;-84
2023/02/22 01:34:45;;;;;;;2.37;2.17;;;7.40;97.30;;;;;;5095898;28;20556;-82
2023/02/22 01:37:10;;;;;;;2.30;1.57;;;7.40;97.30;;;;;;5098733;28;20432;-84
2023/02/22 01:39:36;;;;;;;8.30;2.40;;;7.40;97.30;;;;;;5094457;28;20549;-83
2023/02/22 01:42:01;;;;;;;4.90;2.70;;;7.30;97.30;;;;;;5093564;28;20182;-84
2023/02/22 01:44:36;;;;;;;1.75;1.65;;;7.30;97.30;;;;;;5102660;28;20197;-84
2023/02/22 01:47:03;;;;;;;3.57;2.97;;;7.30;97.30;;;;;;5103442;28;20201;-84
2023/02/22 01:49:35;;;;;;;3.13;2.93;;;7.30;97.30;;;;;;5097067;28;20484;-86
2023/02/22 01:52:05;;;;;;;8.13;3.50;;;7.30;97.30;;;;;;5094237;28;20807;-85
2023/02/22 01:54:38;;;;;;;1.47;1.37;;;7.20;97.30;;;;;;5091422;28;20424;-85
2023/02/22 01:57:21;;;;;;;1.67;1.60;;;7.20;97.30;;;;;;5104511;28;20443;-83
2023/02/22 01:59:52;;;;;;;2.30;2.10;;;7.20;97.30;;;;;;5093253;28;20535;-84
2023/02/22 02:02:20;;;;;;;2.50;2.20;;;7.20;97.30;;;;;;5095416;28;20479;-83
2023/02/22 02:04:47;;;;;;;1.63;1.60;;;7.20;97.30;;;;;;5100113;28;20890;-81
2023/02/22 02:07:16;;;;;;;5.97;3.23;;;7.10;97.30;;;;;;5099932;28;20823;-84
2023/02/22 02:10:14;;;;;;;2.03;1.90;;;7.10;97.30;;;;;;5099737;28;20428;-84
2023/02/22 02:12:43;;;;;;;1.40;1.30;;;7.10;97.30;;;;;;5081218;28;20520;-85
2023/02/22 02:15:28;;;;;;;2.53;1.97;;;7.10;97.30;;;;;;5094756;28;20826;-85
2023/02/22 02:17:56;;;;;;;2.67;2.47;;;7.00;97.30;;;;;;5136376;27;20474;-82
2023/02/22 02:20:46;;;;;;;1.73;1.60;;;7.00;97.30;;;;;;5145649;27;20501;-83
2023/02/22 02:23:46;;;;;;;2.17;1.63;;;7.00;97.30;;;;;;5145926;27;20414;-83
2023/02/22 02:26:41;;;;;;;3.63;1.87;;;6.90;97.30;;;;;;5120911;27;20434;-83
2023/02/22 02:29:40;;;;;;;2.50;2.30;;;6.90;97.30;;;;;;5128357;27;20924;-85
2023/02/22 02:32:24;;;;;;;4.80;1.73;;;6.80;97.30;;;;;;5130122;27;20778;-84
2023/02/22 02:35:22;;;;;;;1.10;1.00;;;6.80;97.30;;;;;;5130812;27;20418;-86
2023/02/22 02:38:11;;;;;;;1.20;1.10;;;6.80;97.30;;;;;;5112870;27;20525;-85
2023/02/22 02:40:50;;;;;;;6.17;2.30;;;6.80;97.30;;;;;;5114522;27;20865;-85
2023/02/22 02:43:35;;;;;;;1.47;1.37;;;6.80;97.30;;;;;;5122602;27;20834;-85
2023/02/22 02:46:17;;;;;;;2.83;1.87;;;6.70;97.30;;;;;;5120910;27;20522;-85
2023/02/22 02:48:55;;;;;;;1.67;1.50;;;6.70;97.30;;;;;;5113001;27;20474;-86
2023/02/22 02:51:23;;;;;;;3.43;2.27;;;6.70;97.30;;;;;;5147791;27;20496;-86
2023/02/22 02:53:50;;;;;;;4.57;1.60;;;6.60;97.30;;;;;;5120773;27;20491;-86
2023/02/22 02:56:17;;;;;;;3.60;1.67;;;6.60;97.30;;;;;;5117285;27;20452;-85
2023/02/22 02:58:49;;;;;;;1.60;1.50;;;6.60;97.30;;;;;;5116272;27;21124;-86
2023/02/22 03:01:40;;;;;;;3.43;3.23;;;6.50;97.30;;;;;;5124091;27;20544;-85
2023/02/22 03:04:36;;;;;;;4.20;2.77;;;6.50;97.30;;;;;;5121755;27;20581;-85
2023/02/22 03:07:14;;;;;;;3.60;1.90;;;6.40;97.30;;;;;;5130410;27;20817;-85
2023/02/22 03:10:06;;;;;;;1.63;1.60;;;6.40;97.30;;;;;;5116907;27;20777;-85
2023/02/22 03:13:03;;;;;;;2.80;2.60;;;6.30;97.30;;;;;;5138827;27;20418;-85
2023/02/22 03:15:46;;;;;;;2.20;2.00;;;6.30;97.30;;;;;;5116078;27;20443;-84
2023/02/22 03:18:42;;;;;;;1.30;1.20;;;6.20;97.30;;;;;;5115942;27;20433;-85
2023/02/22 03:21:15;;;;;;;7.50;2.83;;;6.20;97.30;;;;;;5115288;27;20473;-85
2023/02/22 03:23:53;;;;;;;2.30;1.53;;;6.10;97.30;;;;;;5142864;27;20428;-86
2023/02/22 03:26:27;;;;;;;2.63;2.43;;;6.10;97.30;;;;;;5115649;27;20438;-85
2023/02/22 03:28:54;;;;;;;3.40;2.10;;;6.10;97.30;;;;;;5115768;27;20409;-86
2023/02/22 03:31:28;;;;;;;2.03;1.77;;;6.00;97.30;;;;;;5131849;27;20454;-86
2023/02/22 03:33:58;;;;;;;1.47;1.37;;;6.00;97.30;;;;;;5125745;27;20406;-86
2023/02/22 03:36:38;;;;;;;2.07;1.93;;;6.00;97.30;;;;;;5113786;27;20442;-86
2023/02/22 03:39:09;;;;;;;7.13;1.53;;;5.90;97.30;;;;;;5119935;27;20399;-86
2023/02/22 03:41:38;;;;;;;1.67;1.60;;;5.90;97.30;;;;;;5143516;27;20511;-86
2023/02/22 03:44:10;;;;;;;3.00;2.80;;;5.90;97.30;;;;;;5123932;27;20410;-85
2023/02/22 03:46:39;;;;;;;1.83;1.27;;;5.90;97.30;;;;;;5121337;27;20464;-86
2023/02/22 03:49:25;;;;;;;5.03;1.30;;;5.80;97.30;;;;;;5142389;27;20704;-86
2023/02/22 03:51:50;;;;;;;2.40;2.20;;;5.80;97.30;;;;;;5111636;27;20417;-85
2023/02/22 03:54:16;;;;;;;1.63;1.53;;;5.80;97.30;;;;;;5133620;27;20999;-84
2023/02/22 03:57:22;;;;;;;1.80;1.53;;;5.80;97.30;;;;;;5120676;27;20274;-85
2023/02/22 03:59:48;;;;;;;4.53;3.33;;;5.90;97.30;;;;;;5145852;27;20453;-86
2023/02/22 04:02:17;;;;;;;3.23;2.00;;;5.90;97.30;;;;;;5114591;27;20471;-85
2023/02/22 04:04:46;;;;;;;2.70;2.60;;;5.90;97.30;;;;;;5115221;27;20421;-85
2023/02/22 04:07:12;;;;;;;6.60;2.43;;;5.90;97.30;;;;;;5123927;27;20426;-84
2023/02/22 04:09:37;;;;;;;1.47;1.37;;;6.00;97.30;;;;;;5114998;27;20389;-85
2023/02/22 04:12:03;;;;;;;12.03;2.93;;;6.00;97.30;;;;;;5123362;27;20272;-85
2023/02/22 04:14:29;;;;;;;3.20;2.00;;;6.00;97.30;;;;;;5116038;27;20321;-85
2023/02/22 04:16:54;;;;;;;4.70;1.80;;;6.00;97.30;;;;;;5117107;27;21035;-86
2023/02/22 04:19:20;;;;;;;2.43;2.23;;;6.00;97.30;;;;;;5133001;27;20232;-85
2023/02/22 04:21:46;;;;;;;1.40;1.30;;;6.00;97.30;;;;;;5116682;27;20334;-86
2023/02/22 04:24:12;;;;;;;1.87;1.77;;;6.00;97.30;;;;;;5144377;27;20535;-85
2023/02/22 04:26:37;;;;;;;2.90;2.70;;;6.10;97.30;;;;;;5119219;27;20678;-86
2023/02/22 04:29:03;;;;;;;3.80;1.90;;;6.10;97.30;;;;;;5115820;27;20184;-85
2023/02/22 04:31:29;;;;;;;2.63;2.43;;;6.10;97.30;;;;;;5122340;27;20447;-85
2023/02/22 04:33:55;;;;;;;2.70;2.50;;;6.10;97.30;;;;;;5132926;27;20183;-85
2023/02/22 04:36:21;;;;;;;3.00;1.60;;;6.10;97.30;;;;;;5142856;27;20817;-85
2023/02/22 04:38:47;;;;;;;3.70;3.23;;;6.20;97.30;;;;;;5121631;27;20207;-86
2023/02/22 04:41:13;;;;;;;2.50;2.30;;;6.20;97.30;;;;;;5148161;27;20492;-86
2023/02/22 04:43:38;;;;;;;4.17;3.07;;;6.20;97.30;;;;;;5125343;27;20189;-85
2023/02/22 04:46:04;;;;;;;5.80;2.10;;;6.20;97.30;;;;;;5140428;27;20207;-85
2023/02/22 04:48:29;;;;;;;5.07;3.40;;;6.20;97.30;;;;;;5116987;27;20226;-86
2023/02/22 04:50:55;;;;;;;1.60;1.57;;;6.30;97.30;;;;;;5118467;27;20177;-86
2023/02/22 04:53:21;;;;;;;1.50;1.40;;;6.30;97.30;;;;;;5140050;27;20195;-85
2023/02/22 04:55:46;;;;;;;3.17;2.00;;;6.30;97.30;;;;;;5123662;27;20263;-85
2023/02/22 04:58:12;;;;;;;1.93;1.70;;;6.30;97.30;;;;;;5118848;27;20545;-84
2023/02/22 05:00:37;;;;;;;6.43;1.93;;;6.40;97.30;;;;;;5118710;27;20677;-86
2023/02/22 05:03:03;;;;;;;2.83;2.63;;;6.40;97.30;;;;;;5117529;27;20263;-86
2023/02/22 05:05:28;;;;;;;8.57;3.77;;;6.40;97.30;;;;;;5142568;27;20187;-85
2023/02/22 05:07:56;;;;;;;3.20;3.00;;;6.40;97.30;;;;;;5121989;27;20196;-85
2023/02/22 05:10:23;;;;;;;6.13;2.13;;;6.40;97.30;;;;;;5135287;27;20181;-83
2023/02/22 05:12:49;;;;;;;2.37;2.13;;;6.40;97.30;;;;;;5124655;27;20438;-84
2023/02/22 05:15:18;;;;;;;4.20;1.33;;;6.40;97.30;;;;;;5125561;27;20603;-85
2023/02/22 05:17:44;;;;;;;2.00;1.93;;;6.40;97.30;;;;;;5119736;27;20230;-84
2023/02/22 05:20:24;;;;;;;2.80;2.07;;;6.50;97.30;;;;;;5123270;27;20442;-85
2023/02/22 05:22:50;;;;;;;3.50;2.27;;;6.50;97.30;;;;;;5117240;27;20168;-85
2023/02/22 05:25:16;;;;;;;3.87;3.17;;;6.50;97.30;;;;;;5121951;27;20474;-85
2023/02/22 05:27:42;;;;;;;8.10;3.87;;;6.50;97.30;;;;;;5123781;27;20952;-84
2023/02/22 05:30:09;;;;;;;1.30;1.20;;;6.50;97.30;;;;;;5117242;27;20924;-83
2023/02/22 05:32:35;;;;;;;6.67;3.00;;;6.50;97.30;;;;;;5135456;27;20655;-84
2023/02/22 05:35:07;;;;;;;3.23;2.93;;;6.50;97.30;;;;;;5117201;27;20441;-84
2023/02/22 05:37:35;;;;;;;4.73;1.47;;;6.50;97.30;;;;;;5131868;27;20718;-85
2023/02/22 05:40:01;;;;;;;2.90;2.50;;;6.50;97.30;;;;;;5122039;27;20442;-81
2023/02/22 05:42:26;;;;;;;2.60;2.43;;;6.60;97.30;;;;;;5119419;27;20497;-82
2023/02/22 05:44:52;;;;;;;2.70;1.63;;;6.60;97.30;;;;;;5117079;27;20213;-83
2023/02/22 05:47:18;;;;;;;4.83;4.53;;;6.60;97.30;;;;;;5118608;27;20185;-81
2023/02/22 05:49:44;;;;;;;2.17;2.00;;;6.60;97.30;;;;;;5141001;27;20184;-83
2023/02/22 05:52:09;;;;;;;10.67;3.67;;;6.60;97.30;;;;;;5116815;27;20402;-85
2023/02/22 05:54:35;;;;;;;2.73;2.50;;;6.60;97.30;;;;;;5117635;27;20196;-85
2023/02/22 05:57:00;;;;;;;5.53;3.77;;;6.70;97.30;;;;;;5123359;27;20253;-85
2023/02/22 05:59:26;;;;;;;2.93;2.73;;;6.70;97.30;;;;;;5125777;27;20646;-85
2023/02/22 06:01:52;;;;;;;5.17;4.03;;;6.70;97.30;;;;;;5140249;27;20191;-84
2023/02/22 06:04:17;;;;;;;8.40;2.80;;;6.70;97.30;;;;;;5131982;27;20552;-84
2023/02/22 06:06:42;;;;;;;3.30;2.80;;;6.70;97.30;;;;;;5117973;28;20272;-83
2023/02/22 06:09:08;;;;;;;3.93;2.60;;;6.70;97.30;;;;;;5113622;27;20188;-84
2023/02/22 06:11:33;;;;;;;11.40;2.93;;;6.70;97.30;;;;;;5147702;27;20188;-83
2023/02/22 06:13:59;;;;;;;4.70;4.30;;;6.70;97.30;;;;;;5131203;27;20186;-80
2023/02/22 06:16:24;;;;;;;2.90;2.70;;;6.80;97.30;;;;;;5117180;27;20247;-83
2023/02/22 06:18:50;;;;;;;9.20;3.75;;;6.80;97.30;;;;;;5136739;27;20173;-84
2023/02/22 06:21:16;;;;;;;12.00;2.73;;;6.90;97.30;;;;;;5128575;27;20670;-83
2023/02/22 06:23:41;;;;;;;3.70;2.55;;;6.90;97.30;;;;;;5145826;27;20228;-84
2023/02/22 06:26:07;;;;;;;4.17;2.70;;;6.90;97.30;;;;;;5118130;28;20276;-86
2023/02/22 06:28:32;;;;;;;3.10;2.90;;;7.00;97.30;;;;;;5146564;27;20508;-84
2023/02/22 06:30:58;;;;;;;27.97;4.87;;;7.00;97.30;;;;;;5123037;27;20430;-83
2023/02/22 06:33:23;;;;;;;2.77;2.60;;;7.00;97.30;;;;;;5143000;27;20199;-83
2023/02/22 06:35:48;;;;;;;2.63;1.80;;;7.10;97.30;;;;;;5146082;27;20170;-84
2023/02/22 06:38:22;;;;;;;3.03;1.80;;;7.10;97.30;;;;;;5129714;27;20314;-84
2023/02/22 06:40:47;;;;;;;5.60;2.80;;;7.10;97.30;;;;;;5120049;27;20204;-85
2023/02/22 06:43:13;;;;;;;7.70;4.63;;;7.10;97.30;;;;;;5121433;27;20482;-85
2023/02/22 06:45:38;;;;;;;5.50;4.20;;;7.20;97.30;;;;;;5132151;27;20174;-85
2023/02/22 06:48:04;;;;;;;10.33;5.70;;;7.20;97.30;;;;;;5129663;27;20183;-85
2023/02/22 06:50:30;;;;;;;5.17;4.90;;;7.20;97.30;;;;;;5119858;27;20657;-84
2023/02/22 06:52:56;;;;;;;2.40;2.20;;;7.20;97.30;;;;;;5123842;28;20177;-81
2023/02/22 06:55:24;;;;;;;4.33;3.17;;;7.20;97.30;;;;;;5113971;27;20466;-82
2023/02/22 06:57:50;;;;;;;8.73;3.73;;;7.30;97.30;;;;;;5117693;28;20437;-85
2023/02/22 07:00:18;;;;;;;3.37;2.33;;;7.30;97.30;;;;;;5126254;27;20453;-85
2023/02/22 07:02:44;;;;;;;4.67;3.27;;;7.30;97.30;;;;;;5119006;27;20759;-84
2023/02/22 07:05:11;;;;;;;5.43;3.10;;;7.30;97.30;;;;;;5115703;27;20414;-81
2023/02/22 07:07:38;;;;;;;6.80;3.60;;;7.30;97.30;;;;;;5135234;27;20458;-85
2023/02/22 07:10:07;;;;;;;7.83;5.13;;;7.40;97.30;;;;;;5121035;27;20432;-84
2023/02/22 07:12:32;;;;;;;15.67;7.30;;;7.40;97.30;;;;;;5123085;27;20429;-82
2023/02/22 07:14:58;;;;;;;5.73;4.77;;;7.50;97.30;;;;;;5119728;27;20413;-85
2023/02/22 07:17:23;;;;;;;3.27;2.80;;;7.50;97.30;;;;;;5120918;27;20230;-83
2023/02/22 07:19:49;;;;;;;4.87;3.30;;;7.50;97.30;;;;;;5126469;27;20191;-85
2023/02/22 07:22:16;;;;;;;6.73;3.43;;;7.50;97.30;;;;;;5122576;27;20259;-82
2023/02/22 07:24:42;;;;;;;4.80;4.17;;;7.50;97.30;;;;;;5123078;27;20196;-82
2023/02/22 07:27:07;;;;;;;7.93;4.23;;;7.60;97.30;;;;;;5119929;27;20802;-82
2023/02/22 07:29:34;;;;;;;12.20;5.70;;;7.60;97.30;;;;;;5120428;27;20181;-83
2023/02/22 07:32:00;;;;;;;7.83;2.80;;;7.60;97.30;;;;;;5128018;27;20173;-83
2023/02/22 07:34:26;;;;;;;2.23;2.07;;;7.60;97.30;;;;;;5128083;27;20413;-84
2023/02/22 07:36:52;;;;;;;5.80;4.90;;;7.60;97.30;;;;;;5117405;27;20445;-83
2023/02/22 07:39:17;;;;;;;4.67;3.53;;;7.70;97.30;;;;;;5115780;27;20173;-83
2023/02/22 07:41:43;;;;;;;5.97;3.63;;;7.70;97.30;;;;;;5134064;27;20674;-85
2023/02/22 07:44:08;;;;;;;8.83;5.00;;;7.70;97.30;;;;;;5126677;27;20184;-82
2023/02/22 07:46:36;;;;;;;3.47;3.27;;;7.80;97.30;;;;;;5120309;27;20194;-82
2023/02/22 07:49:02;;;;;;;4.03;3.83;;;7.80;97.30;;;;;;5119275;27;20173;-83
2023/02/22 07:51:27;;;;;;;17.93;6.47;;;7.90;97.30;;;;;;5117794;27;20525;-85
2023/02/22 07:53:53;;;;;;;8.33;4.63;;;8.00;97.30;;;;;;5118573;27;20180;-85
2023/02/22 07:56:18;;;;;;;5.77;4.27;;;8.00;97.30;;;;;;5120906;27;20602;-84
2023/02/22 07:58:46;;;;;;;19.30;7.40;;;8.10;97.30;;;;;;5130040;27;20176;-85
2023/02/22 08:01:17;;;;;;;8.00;4.10;;;8.10;97.30;;;;;;5118544;27;20222;-83
2023/02/22 08:03:46;;;;;;;3.83;3.63;;;8.20;97.30;;;;;;5124071;27;20477;-84
2023/02/22 08:06:12;;;;;;;7.73;4.40;;;8.20;97.30;;;;;;5125457;27;20447;-81
2023/02/22 08:08:37;;;;;;;4.43;2.80;;;8.30;97.30;;;;;;5119595;27;20402;-83
2023/02/22 08:11:03;;;;;;;6.97;3.93;;;8.30;97.30;;;;;;5120652;27;20501;-86
2023/02/22 08:13:29;;;;;;;13.93;3.60;;;8.40;97.30;;;;;;5119757;27;20217;-84
2023/02/22 08:15:54;;;;;;;4.30;4.00;;;8.40;97.30;;;;;;5140900;27;20180;-85
2023/02/22 08:18:21;;;;;;;6.03;5.60;;;8.40;97.30;;;;;;5118220;27;20168;-84
2023/02/22 08:20:49;;;;;;;16.70;3.50;;;8.50;97.30;;;;;;5119747;27;20678;-85
2023/02/22 08:23:15;;;;;;;8.60;3.80;;;8.50;97.30;;;;;;5126741;27;20410;-81
2023/02/22 08:25:41;;;;;;;3.73;3.30;;;8.60;97.30;;;;;;5121033;27;20218;-84
2023/02/22 08:28:10;;;;;;;10.70;3.33;;;8.60;97.30;;;;;;5125692;27;20405;-85
2023/02/22 08:30:37;;;;;;;17.83;4.73;;;8.60;97.30;;;;;;5146558;27;20183;-82
2023/02/22 08:33:03;;;;;;;5.73;3.40;;;8.60;97.30;;;;;;5132806;27;20417;-82
2023/02/22 08:35:31;;;;;;;9.33;5.30;;;8.70;97.30;;;;;;5123476;27;20418;-83
2023/02/22 08:37:59;;;;;;;6.40;4.37;;;8.70;97.30;;;;;;5122504;27;20519;-85
2023/02/22 08:40:27;;;;;;;3.83;2.63;;;8.70;97.30;;;;;;5119201;27;20457;-82
2023/02/22 08:42:53;;;;;;;3.40;3.20;;;8.80;97.30;;;;;;5117795;27;20309;-86
2023/02/22 08:45:19;;;;;;;6.73;3.53;;;8.80;97.30;;;;;;5134784;27;20402;-80
2023/02/22 08:47:45;;;;;;;4.07;3.87;;;8.90;97.30;;;;;;5120584;27;20262;-84
2023/02/22 08:50:22;;;;;;;9.93;4.87;;;8.90;97.30;;;;;;5119991;27;20807;-82
2023/02/22 08:52:52;;;;;;;5.00;4.50;;;8.90;97.30;;;;;;5117087;27;20418;-83
2023/02/22 08:55:23;;;;;;;4.90;2.60;;;9.00;97.30;;;;;;5118736;27;20505;-82
2023/02/22 08:57:49;;;;;;;7.07;3.90;;;9.00;97.30;;;;;;5116887;27;20802;-85
2023/02/22 09:00:16;;;;;;;13.13;4.90;;;9.10;97.30;;;;;;5131617;27;20956;-82
2023/02/22 09:02:41;;;;;;;7.57;5.13;;;9.10;97.30;;;;;;5140991;27;20445;-84
2023/02/22 09:05:07;;;;;;;5.23;4.27;;;9.10;97.30;;;;;;5115814;27;20812;-84
2023/02/22 09:07:32;;;;;;;4.17;3.43;;;9.20;97.30;;;;;;5116831;27;20196;-83
2023/02/22 09:09:58;;;;;;;3.90;3.10;;;9.20;97.30;;;;;;5128774;27;20243;-84
2023/02/22 09:12:23;;;;;;;3.47;2.97;;;9.30;97.30;;;;;;5121111;27;20208;-84
2023/02/22 09:14:49;;;;;;;7.97;4.57;;;9.30;97.30;;;;;;5126786;27;20180;-81
2023/02/22 09:17:15;;;;;;;2.93;2.73;;;9.40;97.30;;;;;;5116004;27;20213;-84
2023/02/22 09:19:40;;;;;;;5.00;4.70;;;9.40;97.30;;;;;;5120075;27;20179;-84
2023/02/22 09:22:06;;;;;;;9.75;4.90;;;9.50;97.30;;;;;;5126660;27;20251;-85
2023/02/22 09:24:31;;;;;;;12.30;6.77;;;9.50;97.30;;;;;;5143765;27;20172;-85
2023/02/22 09:26:58;;;;;;;2.77;2.57;;;9.60;97.30;;;;;;5124885;27;20196;-86
2023/02/22 09:29:26;;;;;;;4.60;4.10;;;9.60;97.30;;;;;;5116854;27;20176;-85
2023/02/22 09:31:54;;;;;;;12.03;4.37;;;9.70;97.30;;;;;;5129196;27;20414;-85
2023/02/22 09:34:27;;;;;;;4.40;3.50;;;9.80;97.30;;;;;;5126201;27;20395;-83
2023/02/22 09:36:54;;;;;;;6.90;4.17;;;9.90;97.30;;;;;;5114461;27;20482;-82
2023/02/22 09:39:20;;;;;;;13.10;5.17;;;9.90;97.30;;;;;;5117156;27;20462;-84
2023/02/22 09:42:02;;;;;;;8.93;5.40;;;10.00;97.30;;;;;;5135793;27;20576;-84
2023/02/22 09:44:48;;;;;;;12.00;7.90;;;10.00;97.30;;;;;;5118012;27;20729;-84
2023/02/22 09:47:18;;;;;;;10.00;5.50;;;10.10;97.30;;;;;;5113080;27;20977;-83
2023/02/22 09:50:01;;;;;;;6.23;3.93;;;10.20;97.30;;;;;;5117090;27;20483;-84
2023/02/22 09:52:38;;;;;;;6.33;5.00;;;10.20;97.30;;;;;;5116902;27;20410;-85
2023/02/22 09:55:24;;;;;;;6.10;3.35;;;10.20;97.30;;;;;;5117596;27;20459;-80
2023/02/22 09:57:54;;;;;;;17.30;6.10;;;10.30;97.30;;;;;;5125851;27;20472;-85
2023/02/22 10:00:28;;;;;;;6.05;3.40;;;10.30;97.30;;;;;;5116505;27;20518;-84
2023/02/22 10:03:11;;;;;;;8.15;3.60;;;10.40;97.30;;;;;;5115937;27;20445;-84
2023/02/22 10:05:40;;;;;;;8.65;5.15;;;10.40;97.30;;;;;;5115794;27;20560;-81
2023/02/22 10:08:12;;;;;;;6.60;3.77;;;10.40;97.30;;;;;;5112447;28;20421;-83
2023/02/22 10:10:41;;;;;;;7.60;4.40;;;10.40;97.30;;;;;;5118388;27;20418;-84
2023/02/22 10:13:24;;;;;;;13.27;7.23;;;10.40;97.30;;;;;;5144631;27;20485;-83
2023/02/22 10:16:12;;;;;;;7.90;5.67;;;10.40;97.30;;;;;;5118343;27;20417;-83
2023/02/22 10:18:59;;;;;;;6.90;3.95;;;10.50;97.30;;;;;;5117180;28;20473;-83
2023/02/22 10:21:50;;;;;;;7.20;3.93;;;10.60;97.30;;;;;;5120075;28;20522;-83
2023/02/22 10:24:57;;;;;;;8.60;5.20;;;10.60;97.30;;;;;;5116216;28;20403;-82
2023/02/22 10:27:34;;;;;;;10.43;5.13;;;10.70;97.30;;;;;;5116188;28;20438;-80
2023/02/22 10:30:13;;;;;;;5.10;4.57;;;10.80;97.30;;;;;;5109854;28;20414;-83
2023/02/22 10:32:45;;;;;;;3.83;3.00;;;10.90;97.30;;;;;;5135188;27;20410;-84
2023/02/22 10:35:20;;;;;;;3.93;3.73;;;10.90;97.30;;;;;;5140394;27;20410;-83
2023/02/22 10:37:47;;;;;;;11.27;5.43;;;10.90;97.30;;;;;;5123591;27;20486;-84
2023/02/22 10:40:16;;;;;;;3.63;3.43;;;11.00;97.30;;;;;;5126247;27;20865;-83
2023/02/22 10:42:42;;;;;;;11.80;5.53;;;11.00;97.30;;;;;;5124792;27;20422;-83
2023/02/22 10:45:25;;;;;;;12.53;4.00;;;11.10;97.30;;;;;;5127142;27;20414;-84
2023/02/22 10:47:54;;;;;;;8.00;3.60;;;11.20;97.30;;;;;;5132546;27;20451;-84
2023/02/22 10:50:21;;;;;;;3.10;2.90;;;11.20;97.30;;;;;;5119910;27;20441;-83
2023/02/22 10:52:47;;;;;;;4.47;2.63;;;11.20;97.30;;;;;;5125974;27;20418;-84
2023/02/22 10:55:14;;;;;;;5.03;3.20;;;11.20;97.30;;;;;;5118952;27;20433;-81
2023/02/22 10:57:43;;;;;;;5.53;4.63;;;11.30;97.30;;;;;;5133898;27;20196;-84
2023/02/22 11:00:29;;;;;;;12.60;3.50;;;11.40;97.30;;;;;;5125371;27;20830;-84
2023/02/22 11:03:00;;;;;;;10.40;4.93;;;11.40;97.30;;;;;;5128104;27;20398;-83
2023/02/22 11:05:30;;;;;;;1.90;1.80;;;11.50;97.30;;;;;;5126694;27;20410;-82
2023/02/22 11:08:14;;;;;;;14.50;3.97;;;11.60;97.30;;;;;;5119831;27;20802;-83
2023/02/22 11:10:42;;;;;;;11.23;5.80;;;11.60;97.30;;;;;;5125069;27;20989;-86
2023/02/22 11:13:24;;;;;;;10.70;5.63;;;11.80;97.30;;;;;;5121582;27;20402;-84
2023/02/22 11:15:51;;;;;;;7.23;3.80;;;11.80;97.30;;;;;;5144388;27;20845;-82
2023/02/22 11:18:32;;;;;;;5.90;3.87;;;11.90;97.30;;;;;;5122092;27;20478;-83
2023/02/22 11:21:06;;;;;;;3.47;3.27;;;12.00;97.30;;;;;;5121536;27;20805;-84
2023/02/22 11:23:34;;;;;;;3.87;3.07;;;12.00;97.30;;;;;;5124538;27;20474;-83
2023/02/22 11:26:10;;;;;;;4.63;3.50;;;12.10;97.30;;;;;;5124070;27;20798;-83
2023/02/22 11:28:47;;;;;;;2.73;2.53;;;12.20;97.30;;;;;;5125335;27;20457;-84
2023/02/22 11:31:26;;;;;;;11.50;3.67;;;12.30;97.30;;;;;;5138418;27;20421;-83
2023/02/22 11:34:00;;;;;;;9.80;3.60;;;12.40;97.30;;;;;;5123380;27;20549;-82
2023/02/22 11:36:31;;;;;;;4.20;2.87;;;12.50;97.30;;;;;;5125246;27;20438;-85
2023/02/22 11:38:59;;;;;;;3.83;3.00;;;12.70;97.30;;;;;;5144148;27;20406;-84
2023/02/22 11:41:35;;;;;;;4.87;3.87;;;12.80;97.30;;;;;;5122036;27;20462;-85
2023/02/22 11:44:25;;;;;;;4.30;3.93;;;12.80;97.30;;;;;;5121190;27;20405;-85
2023/02/22 11:46:54;;;;;;;4.10;2.73;;;12.90;97.30;;;;;;5118973;27;20431;-85
2023/02/22 11:49:32;;;;;;;5.63;3.53;;;13.00;97.30;;;;;;5152306;27;20494;-83
2023/02/22 11:52:21;;;;;;;7.90;4.27;;;13.00;97.30;;;;;;5122533;27;20413;-85
2023/02/22 11:55:08;;;;;;;5.83;3.50;;;13.10;97.30;;;;;;5119972;27;20430;-83
2023/02/22 11:57:47;;;;;;;3.47;2.70;;;13.10;97.30;;;;;;5124847;27;20443;-83
2023/02/22 12:00:57;;;;;;;18.60;5.93;;;13.20;97.30;;;;;;5123128;27;20450;-83
2023/02/22 12:03:32;;;;;;;3.10;2.80;;;13.10;97.30;;;;;;5102444;27;20422;-85
2023/02/22 12:06:24;;;;;;;9.03;3.87;;;13.00;97.30;;;;;;5114606;27;20523;-80
2023/02/22 12:09:12;;;;;;;10.07;3.77;;;13.00;97.30;;;;;;5127847;27;20795;-84
2023/02/22 12:12:02;;;;;;;5.33;2.30;;;13.00;97.30;;;;;;5148454;27;20425;-84
2023/02/22 12:15:01;;;;;;;3.77;3.60;;;13.10;97.30;;;;;;5125933;27;20418;-82
2023/02/22 12:17:43;;;;;;;4.00;2.70;;;13.00;96.80;;;;;;5122423;27;20866;-81
2023/02/22 12:20:26;;;;;;;8.17;4.50;;;13.10;97.30;;;;;;5133061;27;20458;-85
2023/02/22 12:23:15;;;;;;;4.37;3.00;;;13.30;97.30;;;;;;5124590;27;20443;-84
2023/02/22 12:25:57;;;;;;;11.73;4.40;;;13.40;97.10;;;;;;5119062;27;20415;-85
2023/02/22 12:28:36;;;;;;;4.87;3.33;;;13.60;96.60;;;;;;5132581;27;20687;-85
2023/02/22 12:31:23;;;;;;;6.37;2.20;;;13.70;96.40;;;;;;5123812;27;20428;-83
2023/02/22 12:34:06;;;;;;;5.43;3.70;;;14.00;96.40;;;;;;5131026;27;20462;-82
2023/02/22 12:36:40;;;;;;;2.23;2.00;;;14.10;96.30;;;;;;5131848;27;20461;-85
2023/02/22 12:39:41;;;;;;;9.10;3.87;;;14.30;95.50;;;;;;5133545;27;20765;-85
2023/02/22 12:42:54;;;;;;;4.53;4.07;;;14.50;95.40;;;;;;5121528;27;20455;-83
2023/02/22 12:45:37;;;;;;;2.70;2.43;;;14.80;94.00;;;;;;5120654;27;20842;-82
2023/02/22 12:48:29;;;;;;;2.30;2.10;;;14.80;94.00;;;;;;5123842;27;20411;-83
2023/02/22 12:51:00;;;;;;;2.97;2.50;;;14.80;93.50;;;;;;5128491;27;20430;-81
2023/02/22 12:53:35;;;;;;;4.03;2.80;;;14.80;92.60;;;;;;5130593;27;20497;-83
2023/02/22 12:56:26;;;;;;;3.83;2.80;;;14.80;92.90;;;;;;5116069;27;20434;-85
2023/02/22 12:59:14;;;;;;;1.97;1.90;;;14.80;92.60;;;;;;5122243;27;20576;-85
2023/02/22 13:01:44;;;;;;;2.70;2.33;;;14.70;92.40;;;;;;5119900;27;20511;-85
2023/02/22 13:04:10;;;;;;;3.83;3.07;;;14.60;92.60;;;;;;5116089;28;20424;-85
2023/02/22 13:07:09;;;;;;;3.77;3.43;;;14.40;93.00;;;;;;5136348;27;20441;-85
2023/02/22 13:10:01;;;;;;;4.17;3.10;;;14.50;93.30;;;;;;5121330;27;20421;-85
2023/02/22 13:12:53;;;;;;;12.03;4.77;;;14.60;93.00;;;;;;5117650;27;20497;-83
2023/02/22 13:15:50;;;;;;;4.40;2.13;;;14.80;92.70;;;;;;5111826;27;20928;-84
2023/02/22 13:18:33;;;;;;;5.50;3.30;;;14.90;92.40;;;;;;5111757;27;20920;-84